Time;durP1;ratioP1;P1;durP2;ratioP2;P2;SDS_P1;SDS_P2;PMS_P1;PMS_P2;Temp;Humidity;BMP_temperature;BMP_pressure;BME280_temperature;BME280_humidity;BME280_pressure;Samples;Min_cycle;Max_cycle;Signal;HPM_P1;HPM_P2
2022/03/07 00:02:31;;;;;;;9.45;6.68;;;;;;;;;;4991171;28;20519;-80
2022/03/07 00:04:56;;;;;;;10.30;6.13;;;;;;;;;;4986995;28;20074;-79
2022/03/07 00:07:21;;;;;;;9.52;6.25;;;;;;;;;;4998954;28;20065;-78
2022/03/07 00:09:47;;;;;;;12.02;6.38;;;;;;;;;;4998755;28;20027;-80
2022/03/07 00:12:12;;;;;;;9.70;5.88;;;;;;;;;;4994982;28;20505;-79
2022/03/07 00:14:38;;;;;;;7.78;5.88;;;;;;;;;;5004930;28;20031;-80
2022/03/07 00:17:05;;;;;;;7.30;4.93;;;;;;;;;;4998519;28;20458;-79
2022/03/07 00:19:31;;;;;;;8.68;5.60;;;;;;;;;;4999502;28;20349;-83
2022/03/07 00:21:56;;;;;;;7.47;5.03;;;;;;;;;;4993177;28;20544;-80
2022/03/07 00:24:21;;;;;;;9.63;5.57;;;;;;;;;;4998800;28;20116;-80
2022/03/07 00:26:47;;;;;;;8.15;5.50;;;;;;;;;;4980921;28;20034;-80
2022/03/07 00:29:12;;;;;;;6.45;4.78;;;;;;;;;;5000621;28;20038;-82
2022/03/07 00:31:37;;;;;;;8.00;5.18;;;;;;;;;;4975679;28;20038;-82
2022/03/07 00:34:03;;;;;;;7.22;5.18;;;;;;;;;;5000155;28;20077;-81
2022/03/07 00:36:28;;;;;;;10.43;6.20;;;;;;;;;;4994910;28;20030;-81
2022/03/07 00:38:54;;;;;;;10.20;5.60;;;;;;;;;;4999382;28;20026;-80
2022/03/07 00:41:19;;;;;;;9.50;6.07;;;;;;;;;;4998894;28;20503;-81
2022/03/07 00:43:45;;;;;;;7.38;5.85;;;;;;;;;;4995288;28;20496;-81
2022/03/07 00:46:10;;;;;;;10.23;5.90;;;;;;;;;;4993131;28;20131;-81
2022/03/07 00:48:36;;;;;;;13.57;5.82;;;;;;;;;;4974901;28;20030;-81
2022/03/07 00:51:02;;;;;;;10.52;6.22;;;;;;;;;;4975921;28;20117;-81
2022/03/07 00:53:28;;;;;;;8.57;5.10;;;;;;;;;;4997794;28;20023;-81
2022/03/07 00:55:57;;;;;;;7.50;5.43;;;;;;;;;;4990713;28;20030;-80
2022/03/07 00:58:24;;;;;;;9.32;5.40;;;;;;;;;;4980264;28;20025;-82
2022/03/07 01:00:50;;;;;;;9.75;5.47;;;;;;;;;;4979766;28;20031;-80
2022/03/07 01:03:16;;;;;;;6.70;5.00;;;;;;;;;;5014383;23;21219;-82
2022/03/07 01:05:44;;;;;;;9.63;5.80;;;;;;;;;;4976534;28;20031;-85
2022/03/07 01:08:10;;;;;;;6.68;4.93;;;;;;;;;;5000892;28;20034;-87
2022/03/07 01:10:36;;;;;;;7.60;5.15;;;;;;;;;;4983226;28;20049;-86
2022/03/07 01:13:02;;;;;;;7.93;5.53;;;;;;;;;;4995271;28;20109;-83
2022/03/07 01:15:28;;;;;;;7.95;5.05;;;;;;;;;;4987848;28;20038;-87
2022/03/07 01:17:59;;;;;;;7.22;5.10;;;;;;;;;;4992162;28;20069;-86
2022/03/07 01:20:25;;;;;;;8.93;5.60;;;;;;;;;;4987000;28;20046;-84
2022/03/07 01:22:51;;;;;;;8.18;4.88;;;;;;;;;;4985548;28;20315;-82
2022/03/07 01:25:16;;;;;;;7.60;5.15;;;;;;;;;;4988501;28;20026;-84
2022/03/07 01:27:42;;;;;;;7.55;4.78;;;;;;;;;;4991925;28;20087;-85
2022/03/07 01:30:08;;;;;;;7.70;4.93;;;;;;;;;;4988577;28;20029;-84
2022/03/07 01:32:33;;;;;;;8.98;5.15;;;;;;;;;;4983166;28;20034;-85
2022/03/07 01:34:59;;;;;;;7.40;4.90;;;;;;;;;;4987079;28;20041;-85
2022/03/07 01:37:25;;;;;;;6.72;5.00;;;;;;;;;;4979894;28;20062;-86
2022/03/07 01:39:50;;;;;;;8.48;4.60;;;;;;;;;;4984784;28;20496;-85
2022/03/07 01:42:16;;;;;;;6.78;4.97;;;;;;;;;;4986297;28;20022;-85
2022/03/07 01:44:41;;;;;;;8.65;5.47;;;;;;;;;;4996283;28;20042;-82
2022/03/07 01:47:16;;;;;;;7.05;5.07;;;;;;;;;;4988656;28;20034;-86
2022/03/07 01:49:41;;;;;;;6.55;4.47;;;;;;;;;;4984055;28;20034;-86
2022/03/07 01:52:07;;;;;;;8.07;4.55;;;;;;;;;;4992262;28;20117;-86
2022/03/07 01:54:33;;;;;;;9.18;5.00;;;;;;;;;;4987100;28;20134;-86
2022/03/07 01:56:58;;;;;;;6.07;4.90;;;;;;;;;;4976269;28;20062;-86
2022/03/07 01:59:26;;;;;;;8.07;5.20;;;;;;;;;;4980975;28;20449;-87
2022/03/07 02:01:53;;;;;;;8.32;5.75;;;;;;;;;;4988538;28;20038;-85
2022/03/07 02:04:19;;;;;;;7.88;4.88;;;;;;;;;;4983491;28;20027;-85
2022/03/07 02:06:45;;;;;;;9.45;5.82;;;;;;;;;;4986326;28;20042;-87
2022/03/07 02:09:11;;;;;;;10.57;5.75;;;;;;;;;;4992310;28;20503;-86
2022/03/07 02:11:38;;;;;;;7.57;5.00;;;;;;;;;;4985865;28;20029;-87
2022/03/07 02:14:18;;;;;;;9.88;5.28;;;;;;;;;;4980187;28;20035;-85
2022/03/07 02:16:44;;;;;;;7.20;5.20;;;;;;;;;;4982975;28;20058;-83
2022/03/07 02:19:10;;;;;;;6.75;5.00;;;;;;;;;;4990532;28;20111;-85
2022/03/07 02:21:40;;;;;;;9.07;4.55;;;;;;;;;;4986133;28;20509;-85
2022/03/07 02:24:05;;;;;;;8.05;5.10;;;;;;;;;;4982703;28;20027;-84
2022/03/07 02:26:31;;;;;;;9.95;5.45;;;;;;;;;;4983753;28;20110;-85
2022/03/07 02:28:57;;;;;;;13.00;6.07;;;;;;;;;;4988614;28;20058;-85
2022/03/07 02:31:22;;;;;;;9.35;5.47;;;;;;;;;;4989294;28;20106;-84
2022/03/07 02:33:48;;;;;;;10.48;5.72;;;;;;;;;;4986745;28;20063;-85
2022/03/07 02:36:14;;;;;;;10.23;5.85;;;;;;;;;;4990936;28;20046;-84
2022/03/07 02:38:39;;;;;;;9.20;5.35;;;;;;;;;;4996388;28;20038;-86
2022/03/07 02:41:05;;;;;;;9.70;5.55;;;;;;;;;;4987726;28;20035;-83
2022/03/07 02:43:30;;;;;;;7.72;5.68;;;;;;;;;;4995270;28;20121;-84
2022/03/07 02:45:58;;;;;;;6.43;4.85;;;;;;;;;;4997959;28;20022;-85
2022/03/07 02:48:24;;;;;;;7.38;5.32;;;;;;;;;;4991928;28;20031;-83
2022/03/07 02:50:49;;;;;;;9.57;6.72;;;;;;;;;;5001301;28;20022;-85
2022/03/07 02:53:15;;;;;;;8.75;6.10;;;;;;;;;;4991607;28;20029;-85
2022/03/07 02:55:40;;;;;;;8.57;5.20;;;;;;;;;;4996118;28;20188;-84
2022/03/07 02:58:06;;;;;;;12.27;5.82;;;;;;;;;;4995507;28;20034;-85
2022/03/07 03:00:32;;;;;;;9.65;6.05;;;;;;;;;;4995252;28;20030;-86
2022/03/07 03:02:57;;;;;;;9.85;5.93;;;;;;;;;;5001759;28;20057;-85
2022/03/07 03:05:23;;;;;;;8.13;5.38;;;;;;;;;;4993833;28;20031;-85
2022/03/07 03:07:50;;;;;;;9.43;5.50;;;;;;;;;;4984677;28;20033;-85
2022/03/07 03:10:17;;;;;;;9.02;5.55;;;;;;;;;;4983511;28;20018;-87
2022/03/07 03:12:42;;;;;;;10.13;5.57;;;;;;;;;;5002720;28;20027;-83
2022/03/07 03:15:08;;;;;;;9.48;6.18;;;;;;;;;;4996679;28;20622;-86
2022/03/07 03:17:34;;;;;;;11.23;6.88;;;;;;;;;;4992856;28;20031;-87
2022/03/07 03:19:59;;;;;;;9.02;5.97;;;;;;;;;;4988828;28;20026;-86
2022/03/07 03:22:25;;;;;;;10.05;5.68;;;;;;;;;;4991532;28;20058;-85
2022/03/07 03:24:50;;;;;;;8.45;5.63;;;;;;;;;;5004664;28;20034;-88
2022/03/07 03:27:15;;;;;;;8.20;6.10;;;;;;;;;;4992635;28;20137;-88
2022/03/07 03:29:41;;;;;;;8.63;5.10;;;;;;;;;;4997867;28;20026;-89
2022/03/07 03:32:07;;;;;;;9.48;6.35;;;;;;;;;;4985002;28;20022;-87
2022/03/07 03:34:32;;;;;;;10.85;6.18;;;;;;;;;;5001376;28;20058;-83
2022/03/07 03:36:58;;;;;;;7.75;5.70;;;;;;;;;;4990352;28;20401;-85
2022/03/07 03:39:24;;;;;;;8.07;5.57;;;;;;;;;;4987015;28;20074;-85
2022/03/07 03:41:49;;;;;;;9.80;6.00;;;;;;;;;;4997910;28;20034;-88
2022/03/07 03:44:15;;;;;;;9.20;5.85;;;;;;;;;;5001727;28;20022;-88
2022/03/07 03:46:40;;;;;;;11.82;6.53;;;;;;;;;;4990675;28;20055;-86
2022/03/07 03:49:06;;;;;;;11.50;6.68;;;;;;;;;;4984199;28;20038;-88
2022/03/07 03:51:34;;;;;;;8.82;6.30;;;;;;;;;;4996208;28;20106;-85
2022/03/07 03:53:59;;;;;;;10.88;6.50;;;;;;;;;;5003964;28;20113;-84
2022/03/07 03:56:25;;;;;;;12.77;6.00;;;;;;;;;;5000897;28;20030;-85
2022/03/07 03:58:50;;;;;;;11.98;6.22;;;;;;;;;;4997225;28;20093;-88
2022/03/07 04:01:15;;;;;;;10.02;6.50;;;;;;;;;;4992737;28;20030;-85
2022/03/07 04:03:41;;;;;;;9.90;6.68;;;;;;;;;;4992110;28;20061;-84
2022/03/07 04:06:08;;;;;;;9.43;6.25;;;;;;;;;;4988768;28;20038;-86
2022/03/07 04:08:37;;;;;;;11.63;6.88;;;;;;;;;;4990658;28;20435;-87
2022/03/07 04:11:03;;;;;;;9.90;6.32;;;;;;;;;;4983710;28;20023;-86
2022/03/07 04:13:28;;;;;;;10.02;6.53;;;;;;;;;;4995319;28;20036;-86
2022/03/07 04:15:53;;;;;;;10.52;6.80;;;;;;;;;;4992292;28;20174;-88
2022/03/07 04:18:19;;;;;;;9.05;6.53;;;;;;;;;;4987594;28;20042;-88
2022/03/07 04:20:44;;;;;;;11.25;7.25;;;;;;;;;;4989985;28;20440;-87
2022/03/07 04:23:09;;;;;;;10.68;6.78;;;;;;;;;;4992724;28;20030;-88
2022/03/07 04:25:35;;;;;;;10.23;7.18;;;;;;;;;;4987920;28;20118;-85
2022/03/07 04:28:01;;;;;;;11.93;7.45;;;;;;;;;;4995634;28;20098;-85
2022/03/07 04:30:27;;;;;;;12.65;7.45;;;;;;;;;;4984322;28;20045;-87
2022/03/07 04:32:52;;;;;;;15.05;7.85;;;;;;;;;;4987738;28;20034;-87
2022/03/07 04:35:18;;;;;;;9.95;6.53;;;;;;;;;;4993329;28;20092;-84
2022/03/07 04:37:44;;;;;;;12.65;7.82;;;;;;;;;;4993141;28;20040;-88
2022/03/07 04:40:16;;;;;;;11.75;8.07;;;;;;;;;;4988977;28;20112;-87
2022/03/07 04:42:43;;;;;;;13.23;8.20;;;;;;;;;;4980830;28;20046;-86
2022/03/07 04:45:10;;;;;;;13.80;8.27;;;;;;;;;;5004309;28;20034;-87
2022/03/07 04:47:36;;;;;;;12.55;7.78;;;;;;;;;;4985567;28;20034;-87
2022/03/07 04:50:03;;;;;;;13.73;8.50;;;;;;;;;;4989103;28;20050;-84
2022/03/07 04:52:28;;;;;;;12.77;7.28;;;;;;;;;;4998869;28;20046;-85
2022/03/07 04:54:54;;;;;;;13.60;8.18;;;;;;;;;;5003683;28;20034;-85
2022/03/07 04:57:19;;;;;;;13.50;7.65;;;;;;;;;;5011824;28;20026;-83
2022/03/07 04:59:45;;;;;;;14.63;7.18;;;;;;;;;;5010152;28;20101;-82
2022/03/07 05:02:13;;;;;;;12.57;7.10;;;;;;;;;;5011227;28;20152;-83
2022/03/07 05:04:39;;;;;;;15.95;7.43;;;;;;;;;;5000594;28;20026;-87
2022/03/07 05:07:04;;;;;;;10.18;6.50;;;;;;;;;;4991200;28;20097;-86
2022/03/07 05:09:29;;;;;;;11.95;7.00;;;;;;;;;;4986028;28;20037;-87
2022/03/07 05:11:55;;;;;;;12.73;7.22;;;;;;;;;;4979712;28;20027;-88
2022/03/07 05:14:20;;;;;;;10.85;7.13;;;;;;;;;;4986987;28;20081;-87
2022/03/07 05:16:45;;;;;;;10.85;6.97;;;;;;;;;;4993009;28;20034;-85
2022/03/07 05:19:11;;;;;;;14.20;6.90;;;;;;;;;;4985229;28;20041;-87
2022/03/07 05:21:37;;;;;;;11.70;6.95;;;;;;;;;;4989907;28;20031;-86
2022/03/07 05:24:02;;;;;;;10.00;6.85;;;;;;;;;;4991680;28;20033;-85
2022/03/07 05:26:28;;;;;;;11.30;6.40;;;;;;;;;;4990436;28;20035;-84
2022/03/07 05:28:53;;;;;;;13.20;7.53;;;;;;;;;;4994097;28;20019;-87
2022/03/07 05:31:19;;;;;;;12.65;7.18;;;;;;;;;;4986054;28;20022;-86
2022/03/07 05:33:45;;;;;;;16.00;6.50;;;;;;;;;;4992773;28;20018;-85
2022/03/07 05:36:10;;;;;;;8.40;6.05;;;;;;;;;;4989389;28;20092;-86
2022/03/07 05:38:35;;;;;;;10.50;6.35;;;;;;;;;;4989249;28;20041;-86
2022/03/07 05:41:01;;;;;;;13.15;7.28;;;;;;;;;;4997754;23;20041;-80
2022/03/07 05:43:26;;;;;;;11.82;6.38;;;;;;;;;;4991128;28;20049;-79
2022/03/07 05:45:51;;;;;;;9.57;5.57;;;;;;;;;;4988622;28;20038;-79
2022/03/07 05:48:17;;;;;;;9.70;6.15;;;;;;;;;;4987129;28;20513;-82
2022/03/07 05:50:42;;;;;;;11.45;6.55;;;;;;;;;;4995781;28;20030;-79
2022/03/07 05:53:08;;;;;;;9.48;5.75;;;;;;;;;;4995804;28;20589;-80
2022/03/07 05:55:35;;;;;;;10.60;6.57;;;;;;;;;;4997011;28;20037;-80
2022/03/07 05:58:00;;;;;;;10.57;6.60;;;;;;;;;;4979762;28;20057;-79
2022/03/07 06:00:27;;;;;;;11.10;6.47;;;;;;;;;;4995792;28;20030;-80
2022/03/07 06:02:53;;;;;;;12.48;6.55;;;;;;;;;;4979386;28;20512;-79
2022/03/07 06:05:19;;;;;;;20.38;6.70;;;;;;;;;;4997085;28;20033;-79
2022/03/07 06:07:44;;;;;;;13.52;5.95;;;;;;;;;;4997060;28;20034;-83
2022/03/07 06:10:10;;;;;;;9.23;6.07;;;;;;;;;;4997571;28;20921;-85
2022/03/07 06:12:38;;;;;;;10.48;6.28;;;;;;;;;;4988388;28;20037;-80
2022/03/07 06:15:06;;;;;;;10.82;5.88;;;;;;;;;;5006692;28;20054;-79
2022/03/07 06:17:32;;;;;;;14.98;6.03;;;;;;;;;;5013357;28;20024;-79
2022/03/07 06:19:57;;;;;;;9.43;5.43;;;;;;;;;;5004777;28;20030;-81
2022/03/07 06:22:23;;;;;;;11.02;5.90;;;;;;;;;;5012837;28;20038;-78
2022/03/07 06:24:49;;;;;;;13.45;6.25;;;;;;;;;;5013211;28;20022;-78
2022/03/07 06:27:14;;;;;;;10.73;6.03;;;;;;;;;;5017026;28;20030;-79
2022/03/07 06:29:39;;;;;;;11.55;6.38;;;;;;;;;;5015319;28;20026;-79
2022/03/07 06:32:05;;;;;;;12.05;6.07;;;;;;;;;;4997576;28;20026;-79
2022/03/07 06:34:33;;;;;;;11.02;5.55;;;;;;;;;;4999795;28;20022;-79
2022/03/07 06:36:59;;;;;;;9.25;5.97;;;;;;;;;;5018018;28;20030;-78
2022/03/07 06:39:26;;;;;;;9.45;5.78;;;;;;;;;;4999667;28;20125;-79
2022/03/07 06:41:53;;;;;;;9.98;5.90;;;;;;;;;;5008483;28;20038;-79
2022/03/07 06:44:18;;;;;;;8.45;5.13;;;;;;;;;;4999694;28;20033;-79
2022/03/07 06:46:43;;;;;;;10.82;6.22;;;;;;;;;;4999131;28;20090;-79
2022/03/07 06:49:09;;;;;;;12.10;5.68;;;;;;;;;;4999727;28;20060;-80
2022/03/07 06:51:34;;;;;;;15.63;6.38;;;;;;;;;;4996452;28;20033;-79
2022/03/07 06:53:59;;;;;;;8.80;5.93;;;;;;;;;;4996520;28;20085;-81
2022/03/07 06:56:25;;;;;;;43.33;7.10;;;;;;;;;;4984675;28;20058;-79
2022/03/07 06:58:50;;;;;;;8.07;5.25;;;;;;;;;;4998648;28;20015;-81
2022/03/07 07:01:15;;;;;;;8.45;5.72;;;;;;;;;;4978060;28;20030;-81
2022/03/07 07:03:41;;;;;;;9.90;5.82;;;;;;;;;;5005417;28;20085;-80
2022/03/07 07:06:06;;;;;;;12.30;6.13;;;;;;;;;;5009703;28;20086;-82
2022/03/07 07:08:31;;;;;;;11.43;5.75;;;;;;;;;;5011378;28;20407;-80
2022/03/07 07:10:57;;;;;;;12.77;5.45;;;;;;;;;;4987902;28;20030;-82
2022/03/07 07:13:22;;;;;;;12.70;5.50;;;;;;;;;;5006969;28;20026;-83
2022/03/07 07:15:55;;;;;;;10.38;5.43;;;;;;;;;;5001358;28;20030;-80
2022/03/07 07:18:20;;;;;;;;;;;;;;;;;;5006588;28;20466;-79
2022/03/07 07:20:46;;;;;;;7.20;5.13;;;;;;;;;;4982023;28;19919;-80
2022/03/07 07:23:11;;;;;;;12.40;5.38;;;;;;;;;;4998632;28;20141;-81
2022/03/07 07:25:36;;;;;;;10.05;5.65;;;;;;;;;;4998181;28;20128;-80
2022/03/07 07:28:02;;;;;;;15.05;5.55;;;;;;;;;;4998499;28;20037;-81
2022/03/07 07:30:27;;;;;;;7.45;5.18;;;;;;;;;;4998243;28;20037;-80
2022/03/07 07:32:53;;;;;;;8.70;5.88;;;;;;;;;;4996591;28;20484;-81
2022/03/07 07:35:18;;;;;;;7.28;5.00;;;;;;;;;;4992751;28;20092;-83
2022/03/07 07:37:43;;;;;;;8.88;5.65;;;;;;;;;;5006927;28;20034;-80
2022/03/07 07:40:09;;;;;;;8.63;5.30;;;;;;;;;;4981445;28;20033;-82
2022/03/07 07:42:35;;;;;;;9.35;6.00;;;;;;;;;;5002227;28;20457;-82
2022/03/07 07:45:00;;;;;;;8.90;5.93;;;;;;;;;;4989029;28;20091;-82
2022/03/07 07:47:25;;;;;;;9.60;5.82;;;;;;;;;;4988603;28;20026;-80
2022/03/07 07:49:51;;;;;;;10.80;5.97;;;;;;;;;;4997094;28;20030;-82
2022/03/07 07:52:16;;;;;;;13.30;5.50;;;;;;;;;;4992121;28;20116;-82
2022/03/07 07:54:41;;;;;;;10.40;6.07;;;;;;;;;;4986491;28;20023;-81
2022/03/07 07:57:07;;;;;;;10.20;6.25;;;;;;;;;;5003729;28;20033;-82
2022/03/07 07:59:33;;;;;;;7.85;5.32;;;;;;;;;;4990026;28;20109;-82
2022/03/07 08:01:58;;;;;;;10.45;6.40;;;;;;;;;;4997695;28;20026;-82
2022/03/07 08:04:24;;;;;;;12.07;6.15;;;;;;;;;;4985553;28;20031;-81
2022/03/07 08:06:49;;;;;;;8.77;5.63;;;;;;;;;;4981269;28;20030;-81
2022/03/07 08:09:15;;;;;;;9.35;5.50;;;;;;;;;;4981539;28;20038;-83
2022/03/07 08:11:41;;;;;;;11.20;7.10;;;;;;;;;;5000726;28;20033;-83
2022/03/07 08:14:06;;;;;;;10.77;6.72;;;;;;;;;;5000644;28;20551;-80
2022/03/07 08:16:31;;;;;;;11.55;6.43;;;;;;;;;;5006538;28;20436;-81
2022/03/07 08:18:57;;;;;;;10.98;6.35;;;;;;;;;;4994728;28;20033;-81
2022/03/07 08:21:25;;;;;;;9.50;5.97;;;;;;;;;;4979378;28;20033;-81
2022/03/07 08:23:53;;;;;;;11.95;6.22;;;;;;;;;;4975705;28;20511;-82
2022/03/07 08:26:18;;;;;;;9.55;5.85;;;;;;;;;;4994101;28;20037;-81
2022/03/07 08:28:43;;;;;;;8.10;5.18;;;;;;;;;;4975074;28;20027;-80
2022/03/07 08:31:09;;;;;;;8.13;5.55;;;;;;;;;;4977802;28;20034;-82
2022/03/07 08:33:34;;;;;;;8.93;6.28;;;;;;;;;;4983893;28;20027;-79
2022/03/07 08:36:00;;;;;;;10.13;6.13;;;;;;;;;;5005074;28;20089;-79
2022/03/07 08:38:25;;;;;;;9.60;6.63;;;;;;;;;;5002219;28;20033;-80
2022/03/07 08:40:51;;;;;;;7.57;5.60;;;;;;;;;;5006213;28;20083;-79
2022/03/07 08:43:16;;;;;;;8.88;5.70;;;;;;;;;;4998954;28;20552;-79
2022/03/07 08:45:41;;;;;;;6.95;4.88;;;;;;;;;;5004182;28;20030;-82
2022/03/07 08:48:07;;;;;;;9.07;6.05;;;;;;;;;;4979334;28;20042;-81
2022/03/07 08:50:32;;;;;;;9.82;6.25;;;;;;;;;;4992612;28;20034;-81
2022/03/07 08:53:40;;;;;;;10.07;6.43;;;;;;;;;;4992056;28;20038;-82
2022/03/07 08:56:06;;;;;;;9.50;4.93;;;;;;;;;;4996677;28;20500;-82
2022/03/07 08:58:31;;;;;;;8.95;5.35;;;;;;;;;;4988212;28;20035;-81
2022/03/07 09:00:56;;;;;;;10.35;5.43;;;;;;;;;;4981404;28;20485;-81
2022/03/07 09:03:22;;;;;;;10.00;6.07;;;;;;;;;;4992363;28;20168;-82
2022/03/07 09:05:47;;;;;;;10.68;6.53;;;;;;;;;;4986047;28;20037;-82
2022/03/07 09:08:13;;;;;;;15.50;7.50;;;;;;;;;;4996727;28;20050;-79
2022/03/07 09:10:38;;;;;;;10.30;6.35;;;;;;;;;;4992303;28;20033;-80
2022/03/07 09:13:04;;;;;;;10.50;6.57;;;;;;;;;;4985813;28;20041;-80
2022/03/07 09:15:29;;;;;;;10.55;6.35;;;;;;;;;;4997640;28;20026;-81
2022/03/07 09:17:54;;;;;;;11.32;7.65;;;;;;;;;;5002656;28;20049;-81
2022/03/07 09:20:20;;;;;;;13.88;7.03;;;;;;;;;;5000402;28;20025;-79
2022/03/07 09:22:46;;;;;;;10.45;6.63;;;;;;;;;;5003348;28;20031;-80
2022/03/07 09:25:13;;;;;;;8.43;5.80;;;;;;;;;;4982376;28;20547;-83
2022/03/07 09:27:38;;;;;;;12.70;7.57;;;;;;;;;;4997570;28;20113;-81
2022/03/07 09:30:05;;;;;;;12.30;7.13;;;;;;;;;;4989752;28;20057;-80
2022/03/07 09:32:31;;;;;;;9.00;6.45;;;;;;;;;;4996999;28;20126;-80
2022/03/07 09:34:57;;;;;;;7.18;4.75;;;;;;;;;;4979717;28;20065;-79
2022/03/07 09:37:22;;;;;;;9.82;6.32;;;;;;;;;;4996568;28;20093;-82
2022/03/07 09:39:47;;;;;;;9.23;5.82;;;;;;;;;;4992925;28;20573;-80
2022/03/07 09:42:13;;;;;;;10.15;6.07;;;;;;;;;;4995525;28;20151;-80
2022/03/07 09:44:38;;;;;;;11.35;7.47;;;;;;;;;;4984741;28;20117;-80
2022/03/07 09:47:04;;;;;;;11.27;7.07;;;;;;;;;;4978314;28;20038;-81
2022/03/07 09:49:31;;;;;;;9.15;5.03;;;;;;;;;;4997213;28;20109;-80
2022/03/07 09:51:57;;;;;;;10.00;6.47;;;;;;;;;;4995118;28;20105;-81
2022/03/07 09:54:23;;;;;;;10.18;6.72;;;;;;;;;;4974863;28;20485;-81
2022/03/07 09:56:49;;;;;;;14.10;7.57;;;;;;;;;;4977420;28;20089;-81
2022/03/07 09:59:16;;;;;;;12.02;7.55;;;;;;;;;;4989783;28;20081;-81
2022/03/07 10:01:42;;;;;;;8.52;5.32;;;;;;;;;;4995453;28;20030;-81
2022/03/07 10:04:09;;;;;;;10.70;5.80;;;;;;;;;;4975249;28;20062;-81
2022/03/07 10:06:35;;;;;;;14.13;7.15;;;;;;;;;;4974311;28;20046;-80
2022/03/07 10:09:01;;;;;;;10.75;6.60;;;;;;;;;;4989511;28;20031;-81
2022/03/07 10:11:29;;;;;;;12.07;6.57;;;;;;;;;;4993491;28;20139;-80
2022/03/07 10:13:59;;;;;;;8.63;5.32;;;;;;;;;;4997211;28;20022;-80
2022/03/07 10:16:42;;;;;;;9.30;5.65;;;;;;;;;;4998954;28;20046;-80
2022/03/07 10:19:09;;;;;;;9.85;6.60;;;;;;;;;;4993496;28;20044;-80
2022/03/07 10:21:35;;;;;;;8.00;5.32;;;;;;;;;;4996202;28;20421;-80
2022/03/07 10:24:01;;;;;;;6.63;5.55;;;;;;;;;;4998673;28;20042;-80
2022/03/07 10:26:33;;;;;;;9.75;5.72;;;;;;;;;;4993676;28;20030;-80
2022/03/07 10:28:59;;;;;;;10.20;5.80;;;;;;;;;;4970474;28;20031;-80
2022/03/07 10:31:26;;;;;;;12.57;6.63;;;;;;;;;;4996350;28;20030;-80
2022/03/07 10:34:08;;;;;;;9.82;6.80;;;;;;;;;;4990020;28;20030;-81
2022/03/07 10:36:42;;;;;;;9.48;6.32;;;;;;;;;;5003503;28;20053;-80
2022/03/07 10:39:13;;;;;;;8.52;4.95;;;;;;;;;;4991930;28;20022;-80
2022/03/07 10:41:42;;;;;;;12.25;6.57;;;;;;;;;;4978938;28;20029;-80
2022/03/07 10:44:22;;;;;;;6.25;4.28;;;;;;;;;;4992285;28;20035;-80
2022/03/07 10:46:47;;;;;;;14.98;6.18;;;;;;;;;;5007823;28;20049;-80
2022/03/07 10:49:14;;;;;;;7.93;6.00;;;;;;;;;;4978395;28;20045;-80
2022/03/07 10:51:50;;;;;;;19.65;6.70;;;;;;;;;;4996483;28;20023;-80
2022/03/07 10:54:19;;;;;;;6.75;5.13;;;;;;;;;;4990825;28;20054;-80
2022/03/07 10:56:52;;;;;;;9.30;5.30;;;;;;;;;;5003190;28;20481;-80
2022/03/07 10:59:32;;;;;;;11.07;6.70;;;;;;;;;;4995221;28;20034;-80
2022/03/07 11:02:11;;;;;;;8.88;6.20;;;;;;;;;;5002736;28;20089;-80
2022/03/07 11:04:41;;;;;;;10.48;5.78;;;;;;;;;;4989346;28;20260;-82
2022/03/07 11:07:09;;;;;;;8.63;6.20;;;;;;;;;;4991420;28;20031;-80
2022/03/07 11:09:35;;;;;;;9.07;5.47;;;;;;;;;;4995408;28;20105;-81
2022/03/07 11:12:01;;;;;;;6.90;4.95;;;;;;;;;;4998081;28;20406;-81
2022/03/07 11:14:27;;;;;;;7.93;5.60;;;;;;;;;;4989801;28;20528;-80
2022/03/07 11:16:56;;;;;;;10.90;5.90;;;;;;;;;;4993235;28;20026;-81
2022/03/07 11:19:25;;;;;;;4.80;4.07;;;;;;;;;;4993483;28;20092;-82
2022/03/07 11:21:52;;;;;;;10.75;6.78;;;;;;;;;;4998217;28;20026;-80
2022/03/07 11:24:20;;;;;;;5.43;4.28;;;;;;;;;;4991012;28;20027;-81
2022/03/07 11:26:46;;;;;;;10.65;5.88;;;;;;;;;;4998786;28;20489;-80
2022/03/07 11:29:12;;;;;;;17.13;6.57;;;;;;;;;;4975269;28;20050;-80
2022/03/07 11:31:39;;;;;;;6.97;4.15;;;;;;;;;;4998717;28;20018;-81
2022/03/07 11:34:09;;;;;;;8.88;5.40;;;;;;;;;;5005127;28;20033;-80
2022/03/07 11:36:44;;;;;;;11.73;5.00;;;;;;;;;;4998683;28;20030;-80
2022/03/07 11:39:10;;;;;;;12.23;6.68;;;;;;;;;;4982996;28;20030;-80
2022/03/07 11:41:38;;;;;;;10.95;6.43;;;;;;;;;;5000783;28;20022;-80
2022/03/07 11:44:13;;;;;;;7.70;4.97;;;;;;;;;;4995152;28;20113;-80
2022/03/07 11:46:39;;;;;;;8.00;4.50;;;;;;;;;;4989118;28;20426;-80
2022/03/07 11:49:10;;;;;;;11.75;6.30;;;;;;;;;;4995973;28;20022;-80
2022/03/07 11:51:38;;;;;;;9.02;6.07;;;;;;;;;;4995647;28;20018;-80
2022/03/07 11:54:06;;;;;;;10.02;4.60;;;;;;;;;;4991591;28;20050;-81
2022/03/07 11:56:35;;;;;;;8.75;5.78;;;;;;;;;;4990283;28;20097;-79
2022/03/07 11:59:03;;;;;;;11.63;6.43;;;;;;;;;;4971099;28;20123;-80
2022/03/07 12:01:31;;;;;;;10.82;5.20;;;;;;;;;;4974115;28;20029;-80
2022/03/07 12:04:10;;;;;;;8.75;5.43;;;;;;;;;;4972245;28;20034;-82
2022/03/07 12:06:47;;;;;;;7.28;5.30;;;;;;;;;;5001141;28;20062;-82
2022/03/07 12:09:33;;;;;;;9.52;5.72;;;;;;;;;;4986952;28;20031;-81
2022/03/07 12:12:04;;;;;;;10.30;6.05;;;;;;;;;;4980978;28;20026;-81
2022/03/07 12:14:32;;;;;;;9.05;6.30;;;;;;;;;;4989881;28;20069;-82
2022/03/07 12:17:00;;;;;;;14.43;7.20;;;;;;;;;;4981660;28;20500;-82
2022/03/07 12:19:28;;;;;;;9.40;5.70;;;;;;;;;;4996936;28;20023;-81
2022/03/07 12:21:53;;;;;;;10.13;6.38;;;;;;;;;;5014222;28;20025;-82
2022/03/07 12:24:21;;;;;;;10.00;6.57;;;;;;;;;;4997829;28;20026;-83
2022/03/07 12:26:49;;;;;;;8.57;5.95;;;;;;;;;;4999963;28;20010;-80
2022/03/07 12:29:17;;;;;;;8.68;6.35;;;;;;;;;;4997253;28;20465;-80
2022/03/07 12:31:51;;;;;;;12.57;5.93;;;;;;;;;;5013796;28;20038;-81
2022/03/07 12:34:28;;;;;;;10.23;6.40;;;;;;;;;;5015715;28;20035;-83
2022/03/07 12:37:18;;;;;;;9.90;6.10;;;;;;;;;;5016920;28;20137;-81
2022/03/07 12:39:48;;;;;;;10.60;6.63;;;;;;;;;;5017652;28;20029;-80
2022/03/07 12:42:16;;;;;;;9.63;6.20;;;;;;;;;;5029913;28;20026;-81
2022/03/07 12:44:42;;;;;;;12.15;6.68;;;;;;;;;;5017712;28;20041;-80
2022/03/07 12:47:18;;;;;;;8.13;6.13;;;;;;;;;;5017914;28;20030;-81
2022/03/07 12:50:05;;;;;;;7.03;4.55;;;;;;;;;;5009474;28;20038;-80
2022/03/07 12:52:36;;;;;;;11.20;6.20;;;;;;;;;;5013724;28;20054;-81
2022/03/07 12:55:15;;;;;;;9.05;5.85;;;;;;;;;;4980939;28;20033;-81
2022/03/07 12:57:41;;;;;;;7.45;5.28;;;;;;;;;;4980753;28;20038;-82
2022/03/07 13:00:08;;;;;;;7.07;5.25;;;;;;;;;;4997626;28;20488;-81
2022/03/07 13:02:39;;;;;;;13.90;7.15;;;;;;;;;;4998053;28;20057;-81
2022/03/07 13:05:08;;;;;;;9.75;6.57;;;;;;;;;;4998524;28;20030;-81
2022/03/07 13:07:33;;;;;;;11.13;6.53;;;;;;;;;;4982730;28;20050;-81
2022/03/07 13:10:10;;;;;;;15.30;7.20;;;;;;;;;;4994595;28;20496;-80
2022/03/07 13:12:36;;;;;;;17.48;6.10;;;;;;;;;;4992294;28;20022;-81
2022/03/07 13:15:22;;;;;;;14.50;6.50;;;;;;;;;;4997745;28;20037;-81
2022/03/07 13:18:05;;;;;;;10.90;4.93;;;;;;;;;;4997800;28;20102;-81
2022/03/07 13:20:31;;;;;;;13.50;6.28;;;;;;;;;;4999425;28;20048;-81
2022/03/07 13:23:01;;;;;;;11.27;6.30;;;;;;;;;;4998520;28;20552;-81
2022/03/07 13:32:32;;;;;;;9.15;6.78;;;;;;;;;;4923053;28;20037;-82
2022/03/07 13:34:59;;;;;;;8.65;5.70;;;;;;;;;;4999294;28;20041;-82
2022/03/07 13:37:38;;;;;;;10.18;6.57;;;;;;;;;;4988640;28;20030;-80
2022/03/07 13:40:05;;;;;;;9.38;6.72;;;;;;;;;;4991529;28;20026;-82
2022/03/07 13:42:51;;;;;;;14.05;6.32;;;;;;;;;;5003208;28;20113;-80
2022/03/07 13:45:26;;;;;;;9.07;5.97;;;;;;;;;;5002549;28;20061;-82
2022/03/07 13:47:57;;;;;;;12.35;7.07;;;;;;;;;;4997719;28;20034;-81
2022/03/07 13:50:25;;;;;;;8.05;5.93;;;;;;;;;;4983213;28;20513;-81
2022/03/07 13:53:06;;;;;;;12.57;6.70;;;;;;;;;;4983263;28;20034;-81
2022/03/07 13:55:43;;;;;;;10.82;6.50;;;;;;;;;;5005405;28;20030;-81
2022/03/07 13:58:22;;;;;;;8.80;6.53;;;;;;;;;;5006111;28;20030;-81
2022/03/07 14:00:48;;;;;;;11.98;6.60;;;;;;;;;;4997173;28;20030;-81
2022/03/07 14:03:15;;;;;;;9.95;5.13;;;;;;;;;;5005119;28;20053;-81
2022/03/07 14:05:46;;;;;;;10.98;7.22;;;;;;;;;;4986080;28;20033;-82
2022/03/07 14:08:15;;;;;;;9.27;6.88;;;;;;;;;;4988656;28;20019;-82
2022/03/07 14:10:42;;;;;;;9.23;6.28;;;;;;;;;;5002567;28;20378;-81
2022/03/07 14:13:08;;;;;;;9.93;6.43;;;;;;;;;;4980348;28;20014;-81
2022/03/07 14:15:36;;;;;;;9.52;6.20;;;;;;;;;;4979039;28;20030;-82
2022/03/07 14:18:08;;;;;;;9.18;6.95;;;;;;;;;;4995476;28;20033;-82
2022/03/07 14:20:36;;;;;;;12.18;6.57;;;;;;;;;;4982645;28;20023;-82
2022/03/07 14:23:03;;;;;;;11.52;6.88;;;;;;;;;;4996158;28;20062;-83
2022/03/07 14:25:29;;;;;;;11.15;7.10;;;;;;;;;;4996028;28;20048;-83
2022/03/07 14:28:04;;;;;;;10.75;7.03;;;;;;;;;;4978944;28;20030;-83
2022/03/07 14:30:31;;;;;;;8.73;6.13;;;;;;;;;;4979783;28;20022;-81
2022/03/07 14:32:56;;;;;;;8.80;6.05;;;;;;;;;;4974413;28;20496;-81
2022/03/07 14:35:22;;;;;;;8.82;5.53;;;;;;;;;;4982499;28;20028;-83
2022/03/07 14:37:49;;;;;;;9.85;5.68;;;;;;;;;;4997160;28;20030;-82
2022/03/07 14:40:18;;;;;;;10.65;6.05;;;;;;;;;;4999664;28;20058;-82
2022/03/07 14:42:45;;;;;;;11.23;6.93;;;;;;;;;;5007227;28;20111;-80
2022/03/07 14:45:11;;;;;;;10.43;6.78;;;;;;;;;;5007463;28;20048;-80